sensor_id;sensor_type;location;lat;lon;timestamp;P1;durP1;ratioP1;P2;durP2;ratioP2
5209;SDS011;2624;48.048;11.706;2022-10-31T00:00:26;2.60;;;2.40;;
5209;SDS011;2624;48.048;11.706;2022-10-31T00:05:28;3.67;;;2.57;;
5209;SDS011;2624;48.048;11.706;2022-10-31T00:10:30;3.60;;;2.83;;
5209;SDS011;2624;48.048;11.706;2022-10-31T00:15:33;4.30;;;2.77;;
5209;SDS011;2624;48.048;11.706;2022-10-31T00:20:35;6.87;;;2.10;;
5209;SDS011;2624;48.048;11.706;2022-10-31T00:25:38;4.83;;;3.30;;
5209;SDS011;2624;48.048;11.706;2022-10-31T00:30:41;6.60;;;1.63;;
5209;SDS011;2624;48.048;11.706;2022-10-31T00:35:48;5.23;;;2.30;;
5209;SDS011;2624;48.048;11.706;2022-10-31T00:40:50;5.00;;;2.37;;
5209;SDS011;2624;48.048;11.706;2022-10-31T00:45:54;4.83;;;2.27;;
5209;SDS011;2624;48.048;11.706;2022-10-31T00:50:55;10.70;;;2.80;;
5209;SDS011;2624;48.048;11.706;2022-10-31T00:55:57;1.93;;;1.83;;
5209;SDS011;2624;48.048;11.706;2022-10-31T01:01:00;6.83;;;2.43;;
5209;SDS011;2624;48.048;11.706;2022-10-31T01:06:03;5.20;;;2.53;;
5209;SDS011;2624;48.048;11.706;2022-10-31T01:11:08;3.83;;;2.43;;
5209;SDS011;2624;48.048;11.706;2022-10-31T01:16:14;6.03;;;2.50;;
5209;SDS011;2624;48.048;11.706;2022-10-31T01:21:18;2.07;;;1.83;;
5209;SDS011;2624;48.048;11.706;2022-10-31T01:26:22;3.23;;;1.63;;
5209;SDS011;2624;48.048;11.706;2022-10-31T01:31:27;7.70;;;1.90;;
5209;SDS011;2624;48.048;11.706;2022-10-31T01:36:31;6.57;;;2.77;;
5209;SDS011;2624;48.048;11.706;2022-10-31T01:41:34;6.53;;;2.43;;
5209;SDS011;2624;48.048;11.706;2022-10-31T01:46:40;3.03;;;1.40;;
5209;SDS011;2624;48.048;11.706;2022-10-31T01:51:46;11.23;;;1.90;;
5209;SDS011;2624;48.048;11.706;2022-10-31T01:56:52;3.27;;;1.67;;
5209;SDS011;2624;48.048;11.706;2022-10-31T02:01:56;2.53;;;1.70;;
5209;SDS011;2624;48.048;11.706;2022-10-31T02:06:59;11.03;;;2.07;;
5209;SDS011;2624;48.048;11.706;2022-10-31T02:12:06;5.60;;;2.30;;
5209;SDS011;2624;48.048;11.706;2022-10-31T02:17:10;6.43;;;1.63;;
5209;SDS011;2624;48.048;11.706;2022-10-31T02:22:13;6.20;;;2.00;;
5209;SDS011;2624;48.048;11.706;2022-10-31T02:32:55;2.43;;;1.80;;
5209;SDS011;2624;48.048;11.706;2022-10-31T02:38:12;4.73;;;1.80;;
5209;SDS011;2624;48.048;11.706;2022-10-31T02:43:26;5.50;;;1.70;;
5209;SDS011;2624;48.048;11.706;2022-10-31T02:48:35;2.80;;;1.73;;
5209;SDS011;2624;48.048;11.706;2022-10-31T02:53:40;9.77;;;2.30;;
5209;SDS011;2624;48.048;11.706;2022-10-31T02:58:42;20.43;;;2.00;;
5209;SDS011;2624;48.048;11.706;2022-10-31T03:03:53;3.57;;;1.77;;
5209;SDS011;2624;48.048;11.706;2022-10-31T03:09:07;4.17;;;1.97;;
5209;SDS011;2624;48.048;11.706;2022-10-31T03:14:16;7.13;;;1.80;;
5209;SDS011;2624;48.048;11.706;2022-10-31T03:19:25;6.77;;;2.40;;
5209;SDS011;2624;48.048;11.706;2022-10-31T03:24:30;1.57;;;1.47;;
5209;SDS011;2624;48.048;11.706;2022-10-31T03:29:36;4.63;;;1.70;;
5209;SDS011;2624;48.048;11.706;2022-10-31T03:34:41;4.40;;;1.50;;
5209;SDS011;2624;48.048;11.706;2022-10-31T03:39:47;4.90;;;2.03;;
5209;SDS011;2624;48.048;11.706;2022-10-31T03:44:52;6.50;;;1.73;;
5209;SDS011;2624;48.048;11.706;2022-10-31T03:49:58;2.60;;;1.67;;
5209;SDS011;2624;48.048;11.706;2022-10-31T03:55:03;13.57;;;1.97;;
5209;SDS011;2624;48.048;11.706;2022-10-31T04:00:09;3.90;;;1.70;;
5209;SDS011;2624;48.048;11.706;2022-10-31T04:05:14;10.17;;;2.00;;
5209;SDS011;2624;48.048;11.706;2022-10-31T04:10:18;3.83;;;1.43;;
5209;SDS011;2624;48.048;11.706;2022-10-31T04:15:21;1.60;;;1.50;;
5209;SDS011;2624;48.048;11.706;2022-10-31T04:20:32;1.33;;;1.23;;
5209;SDS011;2624;48.048;11.706;2022-10-31T04:25:35;4.00;;;2.03;;
5209;SDS011;2624;48.048;11.706;2022-10-31T04:30:36;7.03;;;1.47;;
5209;SDS011;2624;48.048;11.706;2022-10-31T04:35:40;2.77;;;1.53;;
5209;SDS011;2624;48.048;11.706;2022-10-31T04:40:42;2.57;;;2.37;;
5209;SDS011;2624;48.048;11.706;2022-10-31T04:45:43;2.10;;;1.30;;
5209;SDS011;2624;48.048;11.706;2022-10-31T04:50:47;2.83;;;1.83;;
5209;SDS011;2624;48.048;11.706;2022-10-31T04:55:48;8.03;;;1.40;;
5209;SDS011;2624;48.048;11.706;2022-10-31T05:00:51;5.87;;;1.80;;
5209;SDS011;2624;48.048;11.706;2022-10-31T05:05:54;9.23;;;1.63;;
5209;SDS011;2624;48.048;11.706;2022-10-31T05:10:59;2.57;;;1.77;;
5209;SDS011;2624;48.048;11.706;2022-10-31T05:16:01;3.17;;;2.17;;
5209;SDS011;2624;48.048;11.706;2022-10-31T05:21:04;1.67;;;1.37;;
5209;SDS011;2624;48.048;11.706;2022-10-31T05:26:06;1.63;;;1.53;;
5209;SDS011;2624;48.048;11.706;2022-10-31T05:31:08;5.17;;;1.80;;
5209;SDS011;2624;48.048;11.706;2022-10-31T05:36:11;15.47;;;2.07;;
5209;SDS011;2624;48.048;11.706;2022-10-31T05:41:13;1.60;;;1.27;;
5209;SDS011;2624;48.048;11.706;2022-10-31T05:46:15;3.30;;;2.00;;
5209;SDS011;2624;48.048;11.706;2022-10-31T05:51:18;2.30;;;1.73;;
5209;SDS011;2624;48.048;11.706;2022-10-31T05:56:20;1.40;;;1.40;;
5209;SDS011;2624;48.048;11.706;2022-10-31T06:01:22;10.63;;;1.80;;
5209;SDS011;2624;48.048;11.706;2022-10-31T06:06:25;2.87;;;1.67;;
5209;SDS011;2624;48.048;11.706;2022-10-31T06:11:26;6.93;;;1.80;;
5209;SDS011;2624;48.048;11.706;2022-10-31T06:16:28;3.23;;;1.90;;
5209;SDS011;2624;48.048;11.706;2022-10-31T06:21:32;7.70;;;1.60;;
5209;SDS011;2624;48.048;11.706;2022-10-31T06:26:33;1.73;;;1.63;;
5209;SDS011;2624;48.048;11.706;2022-10-31T06:31:35;6.43;;;1.50;;
5209;SDS011;2624;48.048;11.706;2022-10-31T06:36:38;4.70;;;2.00;;
5209;SDS011;2624;48.048;11.706;2022-10-31T06:41:40;5.80;;;1.90;;
5209;SDS011;2624;48.048;11.706;2022-10-31T06:46:42;6.80;;;2.47;;
5209;SDS011;2624;48.048;11.706;2022-10-31T06:51:48;2.40;;;1.43;;
5209;SDS011;2624;48.048;11.706;2022-10-31T06:56:50;4.40;;;1.83;;
5209;SDS011;2624;48.048;11.706;2022-10-31T07:01:52;2.80;;;1.70;;
5209;SDS011;2624;48.048;11.706;2022-10-31T07:06:55;6.43;;;2.13;;
5209;SDS011;2624;48.048;11.706;2022-10-31T07:11:57;4.57;;;1.57;;
5209;SDS011;2624;48.048;11.706;2022-10-31T07:16:59;1.93;;;1.73;;
5209;SDS011;2624;48.048;11.706;2022-10-31T07:22:02;5.70;;;1.67;;
5209;SDS011;2624;48.048;11.706;2022-10-31T07:27:04;1.90;;;1.70;;
5209;SDS011;2624;48.048;11.706;2022-10-31T07:32:06;2.33;;;2.00;;
5209;SDS011;2624;48.048;11.706;2022-10-31T07:37:09;1.33;;;1.33;;
5209;SDS011;2624;48.048;11.706;2022-10-31T07:42:11;3.20;;;1.60;;
5209;SDS011;2624;48.048;11.706;2022-10-31T07:47:12;7.00;;;1.90;;
5209;SDS011;2624;48.048;11.706;2022-10-31T07:52:16;5.10;;;2.00;;
5209;SDS011;2624;48.048;11.706;2022-10-31T07:57:17;7.10;;;3.40;;
5209;SDS011;2624;48.048;11.706;2022-10-31T08:02:19;4.77;;;3.17;;
5209;SDS011;2624;48.048;11.706;2022-10-31T08:07:22;6.40;;;2.50;;
5209;SDS011;2624;48.048;11.706;2022-10-31T08:12:24;3.00;;;2.10;;
5209;SDS011;2624;48.048;11.706;2022-10-31T08:17:26;6.87;;;2.10;;
5209;SDS011;2624;48.048;11.706;2022-10-31T08:22:30;5.90;;;2.07;;
5209;SDS011;2624;48.048;11.706;2022-10-31T08:27:32;12.40;;;2.70;;
5209;SDS011;2624;48.048;11.706;2022-10-31T08:32:34;5.83;;;2.33;;
5209;SDS011;2624;48.048;11.706;2022-10-31T08:37:37;3.53;;;2.07;;
5209;SDS011;2624;48.048;11.706;2022-10-31T08:42:39;5.10;;;2.57;;
5209;SDS011;2624;48.048;11.706;2022-10-31T08:47:41;2.70;;;2.33;;
5209;SDS011;2624;48.048;11.706;2022-10-31T08:52:44;18.53;;;2.93;;
5209;SDS011;2624;48.048;11.706;2022-10-31T08:57:46;2.87;;;1.87;;
5209;SDS011;2624;48.048;11.706;2022-10-31T09:02:48;10.00;;;2.67;;
5209;SDS011;2624;48.048;11.706;2022-10-31T09:07:57;4.07;;;3.20;;
5209;SDS011;2624;48.048;11.706;2022-10-31T09:13:00;3.97;;;2.53;;
5209;SDS011;2624;48.048;11.706;2022-10-31T09:18:06;8.53;;;2.67;;
5209;SDS011;2624;48.048;11.706;2022-10-31T09:23:10;4.80;;;1.47;;
5209;SDS011;2624;48.048;11.706;2022-10-31T09:28:13;4.87;;;2.20;;
5209;SDS011;2624;48.048;11.706;2022-10-31T09:33:17;3.57;;;2.17;;
5209;SDS011;2624;48.048;11.706;2022-10-31T09:38:21;5.93;;;2.90;;
5209;SDS011;2624;48.048;11.706;2022-10-31T09:43:25;6.13;;;2.47;;
5209;SDS011;2624;48.048;11.706;2022-10-31T09:48:38;7.17;;;1.90;;
5209;SDS011;2624;48.048;11.706;2022-10-31T09:53:53;9.43;;;2.60;;
5209;SDS011;2624;48.048;11.706;2022-10-31T09:58:58;9.80;;;2.10;;
5209;SDS011;2624;48.048;11.706;2022-10-31T10:04:03;7.80;;;2.23;;
5209;SDS011;2624;48.048;11.706;2022-10-31T10:09:14;6.73;;;2.10;;
5209;SDS011;2624;48.048;11.706;2022-10-31T10:14:22;12.60;;;2.20;;
5209;SDS011;2624;48.048;11.706;2022-10-31T10:19:41;1.97;;;1.80;;
5209;SDS011;2624;48.048;11.706;2022-10-31T10:25:14;4.23;;;2.03;;
5209;SDS011;2624;48.048;11.706;2022-10-31T10:30:21;6.37;;;2.10;;
5209;SDS011;2624;48.048;11.706;2022-10-31T10:35:29;7.67;;;2.30;;
5209;SDS011;2624;48.048;11.706;2022-10-31T10:40:35;8.90;;;1.90;;
5209;SDS011;2624;48.048;11.706;2022-10-31T10:45:39;6.20;;;2.13;;
5209;SDS011;2624;48.048;11.706;2022-10-31T10:50:59;16.60;;;2.90;;
5209;SDS011;2624;48.048;11.706;2022-10-31T10:56:07;7.50;;;2.70;;
5209;SDS011;2624;48.048;11.706;2022-10-31T11:01:15;4.20;;;1.97;;
5209;SDS011;2624;48.048;11.706;2022-10-31T11:06:18;10.07;;;2.30;;
5209;SDS011;2624;48.048;11.706;2022-10-31T11:11:24;8.73;;;2.80;;
5209;SDS011;2624;48.048;11.706;2022-10-31T11:16:29;9.10;;;1.90;;
5209;SDS011;2624;48.048;11.706;2022-10-31T11:21:33;5.13;;;2.23;;
5209;SDS011;2624;48.048;11.706;2022-10-31T11:26:37;6.10;;;1.97;;
5209;SDS011;2624;48.048;11.706;2022-10-31T11:31:40;4.80;;;2.40;;
5209;SDS011;2624;48.048;11.706;2022-10-31T11:36:44;3.33;;;2.40;;
5209;SDS011;2624;48.048;11.706;2022-10-31T11:41:47;17.30;;;2.33;;
5209;SDS011;2624;48.048;11.706;2022-10-31T11:46:51;3.43;;;2.27;;
5209;SDS011;2624;48.048;11.706;2022-10-31T11:51:56;12.07;;;3.23;;
5209;SDS011;2624;48.048;11.706;2022-10-31T11:57:02;8.30;;;2.40;;
5209;SDS011;2624;48.048;11.706;2022-10-31T12:02:14;10.87;;;2.80;;
5209;SDS011;2624;48.048;11.706;2022-10-31T12:07:19;4.67;;;2.60;;
5209;SDS011;2624;48.048;11.706;2022-10-31T12:12:26;5.37;;;2.80;;
5209;SDS011;2624;48.048;11.706;2022-10-31T12:17:41;5.63;;;2.50;;
5209;SDS011;2624;48.048;11.706;2022-10-31T12:28:14;4.70;;;2.40;;
5209;SDS011;2624;48.048;11.706;2022-10-31T12:33:44;5.13;;;2.13;;
5209;SDS011;2624;48.048;11.706;2022-10-31T12:39:00;17.03;;;3.07;;
5209;SDS011;2624;48.048;11.706;2022-10-31T12:44:17;15.33;;;2.93;;
5209;SDS011;2624;48.048;11.706;2022-10-31T12:49:39;8.43;;;3.60;;
5209;SDS011;2624;48.048;11.706;2022-10-31T12:54:51;8.40;;;1.90;;
5209;SDS011;2624;48.048;11.706;2022-10-31T13:00:10;4.37;;;2.43;;
5209;SDS011;2624;48.048;11.706;2022-10-31T13:05:17;7.90;;;2.67;;
5209;SDS011;2624;48.048;11.706;2022-10-31T13:10:24;6.20;;;2.00;;
5209;SDS011;2624;48.048;11.706;2022-10-31T13:15:34;17.57;;;2.27;;
5209;SDS011;2624;48.048;11.706;2022-10-31T13:20:48;15.57;;;3.47;;
5209;SDS011;2624;48.048;11.706;2022-10-31T13:25:52;10.03;;;2.97;;
5209;SDS011;2624;48.048;11.706;2022-10-31T13:30:57;8.50;;;2.53;;
5209;SDS011;2624;48.048;11.706;2022-10-31T13:36:07;9.73;;;2.47;;
5209;SDS011;2624;48.048;11.706;2022-10-31T13:41:20;9.77;;;2.93;;
5209;SDS011;2624;48.048;11.706;2022-10-31T13:46:36;6.93;;;2.40;;
5209;SDS011;2624;48.048;11.706;2022-10-31T13:51:39;7.10;;;2.90;;
5209;SDS011;2624;48.048;11.706;2022-10-31T13:56:41;16.07;;;2.63;;
5209;SDS011;2624;48.048;11.706;2022-10-31T14:01:47;8.43;;;3.07;;
5209;SDS011;2624;48.048;11.706;2022-10-31T14:06:53;10.63;;;2.70;;
5209;SDS011;2624;48.048;11.706;2022-10-31T14:11:59;3.43;;;2.40;;
5209;SDS011;2624;48.048;11.706;2022-10-31T14:17:12;7.80;;;3.17;;
5209;SDS011;2624;48.048;11.706;2022-10-31T14:22:20;16.47;;;3.20;;
5209;SDS011;2624;48.048;11.706;2022-10-31T14:27:32;7.97;;;2.97;;
5209;SDS011;2624;48.048;11.706;2022-10-31T14:32:38;9.37;;;3.07;;
5209;SDS011;2624;48.048;11.706;2022-10-31T14:43:17;9.30;;;4.03;;
5209;SDS011;2624;48.048;11.706;2022-10-31T14:48:42;11.90;;;4.13;;
5209;SDS011;2624;48.048;11.706;2022-10-31T14:53:57;5.60;;;3.50;;
5209;SDS011;2624;48.048;11.706;2022-10-31T14:59:02;9.27;;;4.40;;
5209;SDS011;2624;48.048;11.706;2022-10-31T15:04:11;6.00;;;4.13;;
5209;SDS011;2624;48.048;11.706;2022-10-31T15:09:20;20.13;;;3.60;;
5209;SDS011;2624;48.048;11.706;2022-10-31T15:14:24;4.30;;;3.27;;
5209;SDS011;2624;48.048;11.706;2022-10-31T15:19:29;5.30;;;3.17;;
5209;SDS011;2624;48.048;11.706;2022-10-31T15:24:34;7.10;;;3.93;;
5209;SDS011;2624;48.048;11.706;2022-10-31T15:29:46;8.57;;;4.00;;
5209;SDS011;2624;48.048;11.706;2022-10-31T15:34:51;5.87;;;3.50;;
5209;SDS011;2624;48.048;11.706;2022-10-31T15:39:53;3.50;;;3.20;;
5209;SDS011;2624;48.048;11.706;2022-10-31T15:44:57;22.03;;;3.13;;
5209;SDS011;2624;48.048;11.706;2022-10-31T15:50:04;13.03;;;4.47;;
5209;SDS011;2624;48.048;11.706;2022-10-31T15:55:19;9.97;;;3.90;;
5209;SDS011;2624;48.048;11.706;2022-10-31T16:00:24;5.43;;;2.73;;
5209;SDS011;2624;48.048;11.706;2022-10-31T16:05:32;11.73;;;3.17;;
5209;SDS011;2624;48.048;11.706;2022-10-31T16:10:36;7.37;;;3.07;;
5209;SDS011;2624;48.048;11.706;2022-10-31T16:15:45;10.20;;;5.00;;
5209;SDS011;2624;48.048;11.706;2022-10-31T16:20:51;15.77;;;3.57;;
5209;SDS011;2624;48.048;11.706;2022-10-31T16:25:56;10.13;;;2.97;;
5209;SDS011;2624;48.048;11.706;2022-10-31T16:30:57;12.47;;;4.30;;
5209;SDS011;2624;48.048;11.706;2022-10-31T16:36:01;13.80;;;6.17;;
5209;SDS011;2624;48.048;11.706;2022-10-31T16:41:30;15.50;;;5.87;;
5209;SDS011;2624;48.048;11.706;2022-10-31T16:46:34;21.07;;;9.73;;
5209;SDS011;2624;48.048;11.706;2022-10-31T16:51:37;33.07;;;10.93;;
5209;SDS011;2624;48.048;11.706;2022-10-31T16:56:39;20.83;;;6.47;;
5209;SDS011;2624;48.048;11.706;2022-10-31T17:01:43;11.83;;;6.00;;
5209;SDS011;2624;48.048;11.706;2022-10-31T17:06:50;12.30;;;4.77;;
5209;SDS011;2624;48.048;11.706;2022-10-31T17:11:51;8.33;;;4.57;;
5209;SDS011;2624;48.048;11.706;2022-10-31T17:16:54;13.23;;;4.50;;
5209;SDS011;2624;48.048;11.706;2022-10-31T17:21:57;25.33;;;4.50;;
5209;SDS011;2624;48.048;11.706;2022-10-31T17:26:59;8.70;;;3.40;;
5209;SDS011;2624;48.048;11.706;2022-10-31T17:32:01;9.97;;;3.23;;
5209;SDS011;2624;48.048;11.706;2022-10-31T17:37:05;9.40;;;4.20;;
5209;SDS011;2624;48.048;11.706;2022-10-31T17:42:11;19.27;;;7.30;;
5209;SDS011;2624;48.048;11.706;2022-10-31T17:47:13;16.13;;;6.30;;
5209;SDS011;2624;48.048;11.706;2022-10-31T17:52:16;15.53;;;4.27;;
5209;SDS011;2624;48.048;11.706;2022-10-31T17:57:18;5.57;;;3.20;;
5209;SDS011;2624;48.048;11.706;2022-10-31T18:02:20;10.47;;;3.90;;
5209;SDS011;2624;48.048;11.706;2022-10-31T18:07:23;15.63;;;4.23;;
5209;SDS011;2624;48.048;11.706;2022-10-31T18:12:25;8.70;;;4.13;;
5209;SDS011;2624;48.048;11.706;2022-10-31T18:17:27;8.40;;;3.70;;
5209;SDS011;2624;48.048;11.706;2022-10-31T18:22:31;11.97;;;5.63;;
5209;SDS011;2624;48.048;11.706;2022-10-31T18:27:32;16.77;;;6.67;;
5209;SDS011;2624;48.048;11.706;2022-10-31T18:32:34;18.20;;;9.50;;
5209;SDS011;2624;48.048;11.706;2022-10-31T18:37:37;15.40;;;8.50;;
5209;SDS011;2624;48.048;11.706;2022-10-31T18:42:39;14.10;;;5.50;;
5209;SDS011;2624;48.048;11.706;2022-10-31T18:47:41;6.03;;;4.33;;
5209;SDS011;2624;48.048;11.706;2022-10-31T18:52:44;9.97;;;4.57;;
5209;SDS011;2624;48.048;11.706;2022-10-31T18:57:46;11.63;;;5.53;;
5209;SDS011;2624;48.048;11.706;2022-10-31T19:02:48;10.20;;;6.60;;
5209;SDS011;2624;48.048;11.706;2022-10-31T19:07:51;13.23;;;6.77;;
5209;SDS011;2624;48.048;11.706;2022-10-31T19:12:53;7.50;;;5.37;;
5209;SDS011;2624;48.048;11.706;2022-10-31T19:17:55;13.63;;;7.40;;
5209;SDS011;2624;48.048;11.706;2022-10-31T19:22:58;22.90;;;6.30;;
5209;SDS011;2624;48.048;11.706;2022-10-31T19:28:00;10.70;;;6.60;;
5209;SDS011;2624;48.048;11.706;2022-10-31T19:33:02;13.23;;;6.60;;
5209;SDS011;2624;48.048;11.706;2022-10-31T19:38:05;12.30;;;6.70;;
5209;SDS011;2624;48.048;11.706;2022-10-31T19:43:07;12.57;;;8.20;;
5209;SDS011;2624;48.048;11.706;2022-10-31T19:48:09;10.10;;;5.97;;
5209;SDS011;2624;48.048;11.706;2022-10-31T19:53:12;12.23;;;5.93;;
5209;SDS011;2624;48.048;11.706;2022-10-31T19:58:14;11.27;;;6.07;;
5209;SDS011;2624;48.048;11.706;2022-10-31T20:03:16;11.93;;;5.80;;
5209;SDS011;2624;48.048;11.706;2022-10-31T20:08:19;12.83;;;6.40;;
5209;SDS011;2624;48.048;11.706;2022-10-31T20:13:22;11.90;;;7.60;;
5209;SDS011;2624;48.048;11.706;2022-10-31T20:18:24;6.10;;;5.20;;
5209;SDS011;2624;48.048;11.706;2022-10-31T20:23:28;8.47;;;5.40;;
5209;SDS011;2624;48.048;11.706;2022-10-31T20:28:31;17.37;;;5.93;;
5209;SDS011;2624;48.048;11.706;2022-10-31T20:33:33;13.17;;;5.87;;
5209;SDS011;2624;48.048;11.706;2022-10-31T20:38:37;9.33;;;5.83;;
5209;SDS011;2624;48.048;11.706;2022-10-31T20:43:40;12.93;;;5.90;;
5209;SDS011;2624;48.048;11.706;2022-10-31T20:48:42;14.37;;;5.17;;
5209;SDS011;2624;48.048;11.706;2022-10-31T20:53:45;4.97;;;4.27;;
5209;SDS011;2624;48.048;11.706;2022-10-31T20:58:47;9.90;;;4.80;;
5209;SDS011;2624;48.048;11.706;2022-10-31T21:03:50;7.10;;;4.33;;
5209;SDS011;2624;48.048;11.706;2022-10-31T21:08:53;4.50;;;4.10;;
5209;SDS011;2624;48.048;11.706;2022-10-31T21:13:57;5.30;;;3.83;;
5209;SDS011;2624;48.048;11.706;2022-10-31T21:18:59;7.00;;;3.53;;
5209;SDS011;2624;48.048;11.706;2022-10-31T21:24:04;10.40;;;4.00;;
5209;SDS011;2624;48.048;11.706;2022-10-31T21:29:08;12.63;;;3.70;;
5209;SDS011;2624;48.048;11.706;2022-10-31T21:34:11;8.73;;;3.87;;
5209;SDS011;2624;48.048;11.706;2022-10-31T21:39:15;5.67;;;3.97;;
5209;SDS011;2624;48.048;11.706;2022-10-31T21:44:17;12.37;;;4.60;;
5209;SDS011;2624;48.048;11.706;2022-10-31T21:49:19;6.33;;;3.97;;
5209;SDS011;2624;48.048;11.706;2022-10-31T21:54:22;6.57;;;4.00;;
5209;SDS011;2624;48.048;11.706;2022-10-31T21:59:32;6.13;;;4.53;;
5209;SDS011;2624;48.048;11.706;2022-10-31T22:04:34;12.77;;;5.70;;
5209;SDS011;2624;48.048;11.706;2022-10-31T22:09:37;14.70;;;4.77;;
5209;SDS011;2624;48.048;11.706;2022-10-31T22:14:40;7.03;;;3.90;;
5209;SDS011;2624;48.048;11.706;2022-10-31T22:19:42;15.77;;;4.43;;
5209;SDS011;2624;48.048;11.706;2022-10-31T22:24:45;5.00;;;4.20;;
5209;SDS011;2624;48.048;11.706;2022-10-31T22:29:47;5.87;;;3.37;;
5209;SDS011;2624;48.048;11.706;2022-10-31T22:34:49;5.90;;;3.37;;
5209;SDS011;2624;48.048;11.706;2022-10-31T22:39:52;5.70;;;3.80;;
5209;SDS011;2624;48.048;11.706;2022-10-31T22:44:54;5.83;;;2.73;;
5209;SDS011;2624;48.048;11.706;2022-10-31T22:49:55;2.60;;;2.40;;
5209;SDS011;2624;48.048;11.706;2022-10-31T22:54:59;8.60;;;3.90;;
5209;SDS011;2624;48.048;11.706;2022-10-31T23:00:01;7.37;;;3.17;;
5209;SDS011;2624;48.048;11.706;2022-10-31T23:05:03;11.03;;;3.30;;
5209;SDS011;2624;48.048;11.706;2022-10-31T23:10:07;12.57;;;4.27;;
5209;SDS011;2624;48.048;11.706;2022-10-31T23:15:09;11.73;;;3.27;;
5209;SDS011;2624;48.048;11.706;2022-10-31T23:20:11;10.50;;;3.27;;
5209;SDS011;2624;48.048;11.706;2022-10-31T23:25:14;10.40;;;3.60;;
5209;SDS011;2624;48.048;11.706;2022-10-31T23:30:33;5.83;;;3.13;;
5209;SDS011;2624;48.048;11.706;2022-10-31T23:35:35;15.93;;;6.70;;
5209;SDS011;2624;48.048;11.706;2022-10-31T23:40:38;21.53;;;9.90;;
5209;SDS011;2624;48.048;11.706;2022-10-31T23:45:40;7.23;;;4.47;;
5209;SDS011;2624;48.048;11.706;2022-10-31T23:50:45;16.80;;;4.10;;
5209;SDS011;2624;48.048;11.706;2022-10-31T23:55:49;2.90;;;2.70;;
